sensor_id;sensor_type;location;lat;lon;timestamp;P1;durP1;ratioP1;P2;durP2;ratioP2
54683;SDS011;40582;53.100;6.686;2022-11-15T00:00:25;33.10;;;25.20;;
54683;SDS011;40582;53.100;6.686;2022-11-15T00:02:54;35.15;;;26.00;;
54683;SDS011;40582;53.100;6.686;2022-11-15T00:05:20;33.78;;;24.92;;
54683;SDS011;40582;53.100;6.686;2022-11-15T00:07:46;33.08;;;25.27;;
54683;SDS011;40582;53.100;6.686;2022-11-15T00:10:12;33.70;;;25.05;;
54683;SDS011;40582;53.100;6.686;2022-11-15T00:12:38;37.70;;;26.00;;
54683;SDS011;40582;53.100;6.686;2022-11-15T00:15:03;36.63;;;25.52;;
54683;SDS011;40582;53.100;6.686;2022-11-15T00:17:30;34.83;;;25.25;;
54683;SDS011;40582;53.100;6.686;2022-11-15T00:19:55;36.08;;;26.38;;
54683;SDS011;40582;53.100;6.686;2022-11-15T00:22:21;37.40;;;26.58;;
54683;SDS011;40582;53.100;6.686;2022-11-15T00:24:47;38.10;;;26.45;;
54683;SDS011;40582;53.100;6.686;2022-11-15T00:27:12;37.83;;;26.67;;
54683;SDS011;40582;53.100;6.686;2022-11-15T00:29:38;35.70;;;27.60;;
54683;SDS011;40582;53.100;6.686;2022-11-15T00:32:08;37.92;;;26.70;;
54683;SDS011;40582;53.100;6.686;2022-11-15T00:34:35;35.45;;;26.90;;
54683;SDS011;40582;53.100;6.686;2022-11-15T00:37:01;34.40;;;26.60;;
54683;SDS011;40582;53.100;6.686;2022-11-15T00:39:26;36.95;;;26.55;;
54683;SDS011;40582;53.100;6.686;2022-11-15T00:41:52;37.78;;;25.98;;
54683;SDS011;40582;53.100;6.686;2022-11-15T00:44:18;40.10;;;28.42;;
54683;SDS011;40582;53.100;6.686;2022-11-15T00:46:43;40.33;;;26.65;;
54683;SDS011;40582;53.100;6.686;2022-11-15T00:49:09;34.97;;;25.50;;
54683;SDS011;40582;53.100;6.686;2022-11-15T00:51:35;37.95;;;26.00;;
54683;SDS011;40582;53.100;6.686;2022-11-15T00:54:00;34.00;;;24.90;;
54683;SDS011;40582;53.100;6.686;2022-11-15T00:56:26;34.63;;;25.58;;
54683;SDS011;40582;53.100;6.686;2022-11-15T00:58:52;35.70;;;25.00;;
54683;SDS011;40582;53.100;6.686;2022-11-15T01:01:18;37.65;;;24.48;;
54683;SDS011;40582;53.100;6.686;2022-11-15T01:03:44;34.63;;;25.42;;
54683;SDS011;40582;53.100;6.686;2022-11-15T01:06:09;36.03;;;24.38;;
54683;SDS011;40582;53.100;6.686;2022-11-15T01:08:37;32.90;;;24.77;;
54683;SDS011;40582;53.100;6.686;2022-11-15T01:11:07;33.78;;;23.75;;
54683;SDS011;40582;53.100;6.686;2022-11-15T01:13:36;30.85;;;24.48;;
54683;SDS011;40582;53.100;6.686;2022-11-15T01:16:07;34.92;;;25.90;;
54683;SDS011;40582;53.100;6.686;2022-11-15T01:18:32;32.17;;;22.58;;
54683;SDS011;40582;53.100;6.686;2022-11-15T01:20:58;32.78;;;26.08;;
54683;SDS011;40582;53.100;6.686;2022-11-15T01:23:24;34.85;;;25.42;;
54683;SDS011;40582;53.100;6.686;2022-11-15T01:25:49;33.55;;;25.42;;
54683;SDS011;40582;53.100;6.686;2022-11-15T01:28:15;38.22;;;25.92;;
54683;SDS011;40582;53.100;6.686;2022-11-15T01:30:41;34.65;;;25.00;;
54683;SDS011;40582;53.100;6.686;2022-11-15T01:33:06;35.70;;;26.05;;
54683;SDS011;40582;53.100;6.686;2022-11-15T01:35:32;37.67;;;24.10;;
54683;SDS011;40582;53.100;6.686;2022-11-15T01:37:58;35.13;;;24.98;;
54683;SDS011;40582;53.100;6.686;2022-11-15T01:40:23;34.35;;;24.20;;
54683;SDS011;40582;53.100;6.686;2022-11-15T01:42:49;36.83;;;23.35;;
54683;SDS011;40582;53.100;6.686;2022-11-15T01:45:15;36.20;;;24.63;;
54683;SDS011;40582;53.100;6.686;2022-11-15T01:47:43;37.25;;;24.52;;
54683;SDS011;40582;53.100;6.686;2022-11-15T01:50:17;34.60;;;23.95;;
54683;SDS011;40582;53.100;6.686;2022-11-15T01:52:46;36.42;;;23.77;;
54683;SDS011;40582;53.100;6.686;2022-11-15T01:55:22;38.35;;;24.35;;
54683;SDS011;40582;53.100;6.686;2022-11-15T01:57:51;35.55;;;24.20;;
54683;SDS011;40582;53.100;6.686;2022-11-15T02:00:23;37.67;;;24.30;;
54683;SDS011;40582;53.100;6.686;2022-11-15T02:02:48;35.50;;;24.70;;
54683;SDS011;40582;53.100;6.686;2022-11-15T02:05:14;38.47;;;24.55;;
54683;SDS011;40582;53.100;6.686;2022-11-15T02:07:40;34.08;;;24.63;;
54683;SDS011;40582;53.100;6.686;2022-11-15T02:10:10;37.88;;;25.60;;
54683;SDS011;40582;53.100;6.686;2022-11-15T02:12:38;38.47;;;25.33;;
54683;SDS011;40582;53.100;6.686;2022-11-15T02:15:05;39.55;;;25.02;;
54683;SDS011;40582;53.100;6.686;2022-11-15T02:17:35;36.05;;;24.50;;
54683;SDS011;40582;53.100;6.686;2022-11-15T02:20:39;40.35;;;25.17;;
54683;SDS011;40582;53.100;6.686;2022-11-15T02:23:22;40.53;;;25.35;;
54683;SDS011;40582;53.100;6.686;2022-11-15T02:26:26;41.90;;;25.65;;
54683;SDS011;40582;53.100;6.686;2022-11-15T02:29:31;36.00;;;25.15;;
54683;SDS011;40582;53.100;6.686;2022-11-15T02:32:20;40.50;;;26.25;;
54683;SDS011;40582;53.100;6.686;2022-11-15T02:35:45;41.28;;;26.27;;
54683;SDS011;40582;53.100;6.686;2022-11-15T02:38:01;43.63;;;25.63;;
54683;SDS011;40582;53.100;6.686;2022-11-15T02:40:53;42.58;;;27.10;;
54683;SDS011;40582;53.100;6.686;2022-11-15T02:43:25;44.25;;;26.52;;
54683;SDS011;40582;53.100;6.686;2022-11-15T02:46:16;47.58;;;27.35;;
54683;SDS011;40582;53.100;6.686;2022-11-15T02:48:47;44.67;;;27.13;;
54683;SDS011;40582;53.100;6.686;2022-11-15T02:51:13;40.50;;;25.67;;
54683;SDS011;40582;53.100;6.686;2022-11-15T02:53:40;40.22;;;26.60;;
54683;SDS011;40582;53.100;6.686;2022-11-15T02:56:07;42.78;;;25.40;;
54683;SDS011;40582;53.100;6.686;2022-11-15T02:58:52;44.58;;;26.50;;
54683;SDS011;40582;53.100;6.686;2022-11-15T03:07:09;39.05;;;24.15;;
54683;SDS011;40582;53.100;6.686;2022-11-15T03:12:16;42.88;;;25.83;;
54683;SDS011;40582;53.100;6.686;2022-11-15T03:14:57;40.55;;;25.13;;
54683;SDS011;40582;53.100;6.686;2022-11-15T03:17:35;40.35;;;24.98;;
54683;SDS011;40582;53.100;6.686;2022-11-15T03:20:14;38.95;;;24.45;;
54683;SDS011;40582;53.100;6.686;2022-11-15T03:22:43;39.53;;;24.38;;
54683;SDS011;40582;53.100;6.686;2022-11-15T03:25:13;42.90;;;26.33;;
54683;SDS011;40582;53.100;6.686;2022-11-15T03:27:46;43.33;;;25.77;;
54683;SDS011;40582;53.100;6.686;2022-11-15T03:30:16;47.28;;;26.30;;
54683;SDS011;40582;53.100;6.686;2022-11-15T03:32:47;50.75;;;28.02;;
54683;SDS011;40582;53.100;6.686;2022-11-15T03:35:26;49.05;;;26.98;;
54683;SDS011;40582;53.100;6.686;2022-11-15T03:40:52;49.17;;;25.77;;
54683;SDS011;40582;53.100;6.686;2022-11-15T03:43:37;48.00;;;27.60;;
54683;SDS011;40582;53.100;6.686;2022-11-15T03:49:35;61.55;;;30.00;;
54683;SDS011;40582;53.100;6.686;2022-11-15T03:52:01;65.40;;;31.40;;
54683;SDS011;40582;53.100;6.686;2022-11-15T03:54:29;68.03;;;31.17;;
54683;SDS011;40582;53.100;6.686;2022-11-15T03:56:54;67.53;;;31.90;;
54683;SDS011;40582;53.100;6.686;2022-11-15T03:59:20;70.15;;;33.05;;
54683;SDS011;40582;53.100;6.686;2022-11-15T04:01:46;71.93;;;32.22;;
54683;SDS011;40582;53.100;6.686;2022-11-15T04:04:12;68.63;;;33.30;;
54683;SDS011;40582;53.100;6.686;2022-11-15T04:06:37;66.47;;;31.52;;
54683;SDS011;40582;53.100;6.686;2022-11-15T04:09:03;70.72;;;33.45;;
54683;SDS011;40582;53.100;6.686;2022-11-15T04:11:29;71.90;;;33.08;;
54683;SDS011;40582;53.100;6.686;2022-11-15T04:13:55;65.57;;;33.10;;
54683;SDS011;40582;53.100;6.686;2022-11-15T04:16:20;78.50;;;34.05;;
54683;SDS011;40582;53.100;6.686;2022-11-15T04:18:46;73.38;;;35.33;;
54683;SDS011;40582;53.100;6.686;2022-11-15T04:21:31;90.97;;;37.25;;
54683;SDS011;40582;53.100;6.686;2022-11-15T04:24:16;78.97;;;37.22;;
54683;SDS011;40582;53.100;6.686;2022-11-15T04:26:41;85.13;;;37.53;;
54683;SDS011;40582;53.100;6.686;2022-11-15T04:29:07;91.82;;;39.08;;
54683;SDS011;40582;53.100;6.686;2022-11-15T04:31:51;84.07;;;37.70;;
54683;SDS011;40582;53.100;6.686;2022-11-15T04:34:17;96.18;;;40.53;;
54683;SDS011;40582;53.100;6.686;2022-11-15T04:36:43;97.40;;;38.35;;
54683;SDS011;40582;53.100;6.686;2022-11-15T04:39:27;94.20;;;40.00;;
54683;SDS011;40582;53.100;6.686;2022-11-15T04:41:52;96.95;;;40.85;;
54683;SDS011;40582;53.100;6.686;2022-11-15T04:44:18;79.47;;;37.38;;
54683;SDS011;40582;53.100;6.686;2022-11-15T04:46:44;99.43;;;41.47;;
54683;SDS011;40582;53.100;6.686;2022-11-15T04:49:09;97.95;;;41.58;;
54683;SDS011;40582;53.100;6.686;2022-11-15T04:51:35;98.80;;;41.55;;
54683;SDS011;40582;53.100;6.686;2022-11-15T04:54:01;94.82;;;40.72;;
54683;SDS011;40582;53.100;6.686;2022-11-15T04:56:27;98.88;;;42.05;;
54683;SDS011;40582;53.100;6.686;2022-11-15T04:58:52;104.90;;;45.22;;
54683;SDS011;40582;53.100;6.686;2022-11-15T05:01:18;116.28;;;45.55;;
54683;SDS011;40582;53.100;6.686;2022-11-15T05:03:44;97.47;;;42.30;;
54683;SDS011;40582;53.100;6.686;2022-11-15T05:06:28;126.78;;;49.05;;
54683;SDS011;40582;53.100;6.686;2022-11-15T05:08:54;118.43;;;48.40;;
54683;SDS011;40582;53.100;6.686;2022-11-15T05:11:21;115.00;;;47.72;;
54683;SDS011;40582;53.100;6.686;2022-11-15T05:13:47;124.97;;;51.42;;
54683;SDS011;40582;53.100;6.686;2022-11-15T05:16:13;135.43;;;51.30;;
54683;SDS011;40582;53.100;6.686;2022-11-15T05:18:39;146.25;;;54.63;;
54683;SDS011;40582;53.100;6.686;2022-11-15T05:21:12;131.32;;;50.90;;
54683;SDS011;40582;53.100;6.686;2022-11-15T05:23:39;149.25;;;55.67;;
54683;SDS011;40582;53.100;6.686;2022-11-15T05:26:06;146.48;;;52.40;;
54683;SDS011;40582;53.100;6.686;2022-11-15T05:28:32;149.30;;;56.95;;
54683;SDS011;40582;53.100;6.686;2022-11-15T05:31:10;196.30;;;60.83;;
54683;SDS011;40582;53.100;6.686;2022-11-15T05:33:37;136.40;;;55.60;;
54683;SDS011;40582;53.100;6.686;2022-11-15T05:36:05;147.95;;;55.28;;
54683;SDS011;40582;53.100;6.686;2022-11-15T05:38:33;171.63;;;60.35;;
54683;SDS011;40582;53.100;6.686;2022-11-15T05:41:02;167.60;;;58.85;;
54683;SDS011;40582;53.100;6.686;2022-11-15T05:43:29;183.02;;;63.42;;
54683;SDS011;40582;53.100;6.686;2022-11-15T05:45:57;191.70;;;64.28;;
54683;SDS011;40582;53.100;6.686;2022-11-15T05:48:24;184.88;;;63.47;;
54683;SDS011;40582;53.100;6.686;2022-11-15T05:50:50;159.52;;;59.85;;
54683;SDS011;40582;53.100;6.686;2022-11-15T05:53:17;161.43;;;60.80;;
54683;SDS011;40582;53.100;6.686;2022-11-15T05:55:45;179.20;;;61.60;;
54683;SDS011;40582;53.100;6.686;2022-11-15T05:58:11;194.23;;;64.25;;
54683;SDS011;40582;53.100;6.686;2022-11-15T06:00:37;179.73;;;64.88;;
54683;SDS011;40582;53.100;6.686;2022-11-15T06:03:03;171.23;;;64.65;;
54683;SDS011;40582;53.100;6.686;2022-11-15T06:05:29;178.80;;;64.05;;
54683;SDS011;40582;53.100;6.686;2022-11-15T06:07:58;166.75;;;62.83;;
54683;SDS011;40582;53.100;6.686;2022-11-15T06:10:24;184.85;;;64.68;;
54683;SDS011;40582;53.100;6.686;2022-11-15T06:12:59;161.98;;;60.83;;
54683;SDS011;40582;53.100;6.686;2022-11-15T06:15:27;151.38;;;58.38;;
54683;SDS011;40582;53.100;6.686;2022-11-15T06:17:55;175.25;;;62.92;;
54683;SDS011;40582;53.100;6.686;2022-11-15T06:20:23;162.05;;;60.97;;
54683;SDS011;40582;53.100;6.686;2022-11-15T06:22:59;150.55;;;59.47;;
54683;SDS011;40582;53.100;6.686;2022-11-15T06:25:29;143.80;;;59.15;;
54683;SDS011;40582;53.100;6.686;2022-11-15T06:27:56;137.32;;;57.40;;
54683;SDS011;40582;53.100;6.686;2022-11-15T06:30:23;169.07;;;62.97;;
54683;SDS011;40582;53.100;6.686;2022-11-15T06:32:50;173.68;;;65.38;;
54683;SDS011;40582;53.100;6.686;2022-11-15T06:35:16;168.95;;;63.45;;
54683;SDS011;40582;53.100;6.686;2022-11-15T06:37:42;178.20;;;62.70;;
54683;SDS011;40582;53.100;6.686;2022-11-15T06:40:08;166.55;;;62.05;;
54683;SDS011;40582;53.100;6.686;2022-11-15T06:42:34;147.00;;;57.58;;
54683;SDS011;40582;53.100;6.686;2022-11-15T06:45:00;151.93;;;60.42;;
54683;SDS011;40582;53.100;6.686;2022-11-15T06:47:27;151.23;;;56.22;;
54683;SDS011;40582;53.100;6.686;2022-11-15T06:49:52;178.23;;;62.17;;
54683;SDS011;40582;53.100;6.686;2022-11-15T06:52:18;140.93;;;55.67;;
54683;SDS011;40582;53.100;6.686;2022-11-15T06:54:44;163.60;;;58.33;;
54683;SDS011;40582;53.100;6.686;2022-11-15T06:57:10;168.43;;;59.25;;
54683;SDS011;40582;53.100;6.686;2022-11-15T06:59:36;153.88;;;56.00;;
54683;SDS011;40582;53.100;6.686;2022-11-15T07:02:02;167.48;;;60.55;;
54683;SDS011;40582;53.100;6.686;2022-11-15T07:04:28;132.82;;;55.03;;
54683;SDS011;40582;53.100;6.686;2022-11-15T07:06:54;137.70;;;54.50;;
54683;SDS011;40582;53.100;6.686;2022-11-15T07:09:19;147.20;;;57.15;;
54683;SDS011;40582;53.100;6.686;2022-11-15T07:11:45;131.15;;;52.10;;
54683;SDS011;40582;53.100;6.686;2022-11-15T07:14:11;133.25;;;53.42;;
54683;SDS011;40582;53.100;6.686;2022-11-15T07:16:36;132.57;;;54.30;;
54683;SDS011;40582;53.100;6.686;2022-11-15T07:19:02;131.35;;;53.65;;
54683;SDS011;40582;53.100;6.686;2022-11-15T07:21:28;128.50;;;50.95;;
54683;SDS011;40582;53.100;6.686;2022-11-15T07:23:54;122.93;;;52.75;;
54683;SDS011;40582;53.100;6.686;2022-11-15T07:26:20;138.25;;;53.17;;
54683;SDS011;40582;53.100;6.686;2022-11-15T07:28:45;133.23;;;53.00;;
54683;SDS011;40582;53.100;6.686;2022-11-15T07:31:11;123.88;;;51.45;;
54683;SDS011;40582;53.100;6.686;2022-11-15T07:33:37;133.27;;;51.95;;
54683;SDS011;40582;53.100;6.686;2022-11-15T07:36:03;116.40;;;49.47;;
54683;SDS011;40582;53.100;6.686;2022-11-15T07:38:30;112.55;;;49.22;;
54683;SDS011;40582;53.100;6.686;2022-11-15T07:41:00;114.70;;;49.38;;
54683;SDS011;40582;53.100;6.686;2022-11-15T07:43:28;111.65;;;50.47;;
54683;SDS011;40582;53.100;6.686;2022-11-15T07:45:54;102.15;;;48.55;;
54683;SDS011;40582;53.100;6.686;2022-11-15T07:48:21;98.72;;;46.42;;
54683;SDS011;40582;53.100;6.686;2022-11-15T07:50:47;102.00;;;46.17;;
54683;SDS011;40582;53.100;6.686;2022-11-15T07:53:13;105.03;;;46.25;;
54683;SDS011;40582;53.100;6.686;2022-11-15T07:55:39;99.70;;;45.80;;
54683;SDS011;40582;53.100;6.686;2022-11-15T07:58:07;88.35;;;43.78;;
54683;SDS011;40582;53.100;6.686;2022-11-15T08:00:34;95.88;;;43.42;;
54683;SDS011;40582;53.100;6.686;2022-11-15T08:03:08;93.97;;;43.70;;
54683;SDS011;40582;53.100;6.686;2022-11-15T08:05:35;94.70;;;42.77;;
54683;SDS011;40582;53.100;6.686;2022-11-15T08:08:02;78.53;;;40.88;;
54683;SDS011;40582;53.100;6.686;2022-11-15T08:10:27;83.40;;;40.53;;
54683;SDS011;40582;53.100;6.686;2022-11-15T08:13:00;71.88;;;38.60;;
54683;SDS011;40582;53.100;6.686;2022-11-15T08:15:28;70.57;;;39.03;;
54683;SDS011;40582;53.100;6.686;2022-11-15T08:17:58;77.22;;;37.25;;
54683;SDS011;40582;53.100;6.686;2022-11-15T08:20:32;76.55;;;38.35;;
54683;SDS011;40582;53.100;6.686;2022-11-15T08:22:59;72.82;;;37.20;;
54683;SDS011;40582;53.100;6.686;2022-11-15T08:25:26;73.65;;;36.10;;
54683;SDS011;40582;53.100;6.686;2022-11-15T08:27:54;61.92;;;34.97;;
54683;SDS011;40582;53.100;6.686;2022-11-15T08:30:24;61.92;;;34.58;;
54683;SDS011;40582;53.100;6.686;2022-11-15T08:32:50;68.05;;;36.13;;
54683;SDS011;40582;53.100;6.686;2022-11-15T08:35:17;58.85;;;34.72;;
54683;SDS011;40582;53.100;6.686;2022-11-15T08:37:43;58.00;;;33.70;;
54683;SDS011;40582;53.100;6.686;2022-11-15T08:40:09;58.72;;;33.75;;
54683;SDS011;40582;53.100;6.686;2022-11-15T08:42:35;51.05;;;32.05;;
54683;SDS011;40582;53.100;6.686;2022-11-15T08:45:01;51.75;;;31.17;;
54683;SDS011;40582;53.100;6.686;2022-11-15T08:47:28;54.90;;;31.45;;
54683;SDS011;40582;53.100;6.686;2022-11-15T08:49:54;49.70;;;28.95;;
54683;SDS011;40582;53.100;6.686;2022-11-15T08:52:19;43.28;;;29.85;;
54683;SDS011;40582;53.100;6.686;2022-11-15T08:54:45;41.08;;;27.80;;
54683;SDS011;40582;53.100;6.686;2022-11-15T08:57:11;47.55;;;29.35;;
54683;SDS011;40582;53.100;6.686;2022-11-15T08:59:37;45.35;;;28.00;;
54683;SDS011;40582;53.100;6.686;2022-11-15T09:02:03;43.42;;;28.92;;
54683;SDS011;40582;53.100;6.686;2022-11-15T09:04:29;41.10;;;27.77;;
54683;SDS011;40582;53.100;6.686;2022-11-15T09:06:55;47.78;;;28.25;;
54683;SDS011;40582;53.100;6.686;2022-11-15T09:09:21;43.22;;;27.73;;
54683;SDS011;40582;53.100;6.686;2022-11-15T09:11:47;46.88;;;28.92;;
54683;SDS011;40582;53.100;6.686;2022-11-15T09:14:13;51.92;;;30.48;;
54683;SDS011;40582;53.100;6.686;2022-11-15T09:16:39;43.85;;;26.77;;
54683;SDS011;40582;53.100;6.686;2022-11-15T09:19:05;48.17;;;26.60;;
54683;SDS011;40582;53.100;6.686;2022-11-15T09:21:31;49.75;;;28.73;;
54683;SDS011;40582;53.100;6.686;2022-11-15T09:23:57;44.10;;;26.70;;
54683;SDS011;40582;53.100;6.686;2022-11-15T09:26:23;41.08;;;27.65;;
54683;SDS011;40582;53.100;6.686;2022-11-15T09:28:49;42.70;;;27.50;;
54683;SDS011;40582;53.100;6.686;2022-11-15T09:31:15;48.08;;;27.80;;
54683;SDS011;40582;53.100;6.686;2022-11-15T09:33:43;38.63;;;26.00;;
54683;SDS011;40582;53.100;6.686;2022-11-15T09:36:09;41.33;;;26.58;;
54683;SDS011;40582;53.100;6.686;2022-11-15T09:38:35;43.38;;;27.00;;
54683;SDS011;40582;53.100;6.686;2022-11-15T09:49:04;41.50;;;26.10;;
54683;SDS011;40582;53.100;6.686;2022-11-15T09:51:33;37.80;;;23.55;;
54683;SDS011;40582;53.100;6.686;2022-11-15T09:54:29;41.13;;;25.67;;
54683;SDS011;40582;53.100;6.686;2022-11-15T10:04:40;44.78;;;25.15;;
54683;SDS011;40582;53.100;6.686;2022-11-15T10:07:13;35.70;;;23.83;;
54683;SDS011;40582;53.100;6.686;2022-11-15T10:10:04;36.17;;;22.65;;
54683;SDS011;40582;53.100;6.686;2022-11-15T10:12:51;31.65;;;21.58;;
54683;SDS011;40582;53.100;6.686;2022-11-15T10:15:18;34.10;;;22.38;;
54683;SDS011;40582;53.100;6.686;2022-11-15T10:20:24;36.13;;;21.75;;
54683;SDS011;40582;53.100;6.686;2022-11-15T10:23:00;33.10;;;21.75;;
54683;SDS011;40582;53.100;6.686;2022-11-15T10:25:31;32.47;;;20.75;;
54683;SDS011;40582;53.100;6.686;2022-11-15T10:30:48;29.88;;;19.95;;
54683;SDS011;40582;53.100;6.686;2022-11-15T10:33:26;30.80;;;21.00;;
54683;SDS011;40582;53.100;6.686;2022-11-15T10:41:13;27.23;;;19.90;;
54683;SDS011;40582;53.100;6.686;2022-11-15T10:43:41;37.60;;;21.50;;
54683;SDS011;40582;53.100;6.686;2022-11-15T10:46:20;26.52;;;20.45;;
54683;SDS011;40582;53.100;6.686;2022-11-15T10:48:47;38.78;;;22.75;;
54683;SDS011;40582;53.100;6.686;2022-11-15T10:51:24;30.63;;;22.23;;
54683;SDS011;40582;53.100;6.686;2022-11-15T10:53:56;36.85;;;21.50;;
54683;SDS011;40582;53.100;6.686;2022-11-15T10:56:25;37.72;;;24.15;;
54683;SDS011;40582;53.100;6.686;2022-11-15T10:58:55;38.17;;;23.48;;
54683;SDS011;40582;53.100;6.686;2022-11-15T11:01:23;24.75;;;20.73;;
54683;SDS011;40582;53.100;6.686;2022-11-15T11:03:58;33.88;;;23.38;;
54683;SDS011;40582;53.100;6.686;2022-11-15T11:06:27;32.08;;;23.00;;
54683;SDS011;40582;53.100;6.686;2022-11-15T11:09:00;35.25;;;22.02;;
54683;SDS011;40582;53.100;6.686;2022-11-15T11:16:46;27.58;;;19.20;;
54683;SDS011;40582;53.100;6.686;2022-11-15T11:19:39;28.88;;;19.25;;
54683;SDS011;40582;53.100;6.686;2022-11-15T11:22:43;22.75;;;18.20;;
54683;SDS011;40582;53.100;6.686;2022-11-15T11:33:41;20.75;;;16.13;;
54683;SDS011;40582;53.100;6.686;2022-11-15T11:47:24;20.05;;;15.60;;
54683;SDS011;40582;53.100;6.686;2022-11-15T11:49:59;24.27;;;18.30;;
54683;SDS011;40582;53.100;6.686;2022-11-15T11:52:55;24.05;;;17.40;;
54683;SDS011;40582;53.100;6.686;2022-11-15T11:55:24;22.50;;;16.75;;
54683;SDS011;40582;53.100;6.686;2022-11-15T12:00:55;24.08;;;15.52;;
54683;SDS011;40582;53.100;6.686;2022-11-15T12:03:44;22.08;;;14.07;;
54683;SDS011;40582;53.100;6.686;2022-11-15T12:06:51;15.57;;;8.27;;
54683;SDS011;40582;53.100;6.686;2022-11-15T12:14:40;17.27;;;8.10;;
54683;SDS011;40582;53.100;6.686;2022-11-15T12:17:11;13.88;;;7.63;;
54683;SDS011;40582;53.100;6.686;2022-11-15T12:19:37;12.00;;;8.07;;
54683;SDS011;40582;53.100;6.686;2022-11-15T12:27:32;11.02;;;7.90;;
54683;SDS011;40582;53.100;6.686;2022-11-15T12:30:00;15.65;;;8.60;;
54683;SDS011;40582;53.100;6.686;2022-11-15T12:32:39;9.15;;;6.60;;
54683;SDS011;40582;53.100;6.686;2022-11-15T12:37:56;11.13;;;7.55;;
54683;SDS011;40582;53.100;6.686;2022-11-15T12:40:23;10.73;;;7.05;;
54683;SDS011;40582;53.100;6.686;2022-11-15T12:45:44;13.15;;;6.78;;
54683;SDS011;40582;53.100;6.686;2022-11-15T12:56:34;14.40;;;6.50;;
54683;SDS011;40582;53.100;6.686;2022-11-15T13:11:58;11.77;;;5.78;;
54683;SDS011;40582;53.100;6.686;2022-11-15T13:19:53;9.45;;;5.35;;
54683;SDS011;40582;53.100;6.686;2022-11-15T13:22:29;11.02;;;5.47;;
54683;SDS011;40582;53.100;6.686;2022-11-15T13:31:19;11.45;;;5.78;;
54683;SDS011;40582;53.100;6.686;2022-11-15T13:33:56;11.52;;;5.63;;
54683;SDS011;40582;53.100;6.686;2022-11-15T13:36:25;14.50;;;6.03;;
54683;SDS011;40582;53.100;6.686;2022-11-15T13:39:02;11.85;;;5.82;;
54683;SDS011;40582;53.100;6.686;2022-11-15T13:41:34;10.35;;;5.07;;
54683;SDS011;40582;53.100;6.686;2022-11-15T13:44:01;9.00;;;4.85;;
54683;SDS011;40582;53.100;6.686;2022-11-15T13:46:29;6.88;;;3.80;;
54683;SDS011;40582;53.100;6.686;2022-11-15T13:48:57;11.38;;;4.60;;
54683;SDS011;40582;53.100;6.686;2022-11-15T13:56:47;11.18;;;3.95;;
54683;SDS011;40582;53.100;6.686;2022-11-15T13:59:24;8.45;;;4.35;;
54683;SDS011;40582;53.100;6.686;2022-11-15T14:02:01;6.28;;;4.07;;
54683;SDS011;40582;53.100;6.686;2022-11-15T14:04:38;7.07;;;3.72;;
54683;SDS011;40582;53.100;6.686;2022-11-15T14:07:15;6.47;;;3.83;;
54683;SDS011;40582;53.100;6.686;2022-11-15T14:09:46;5.15;;;3.35;;
54683;SDS011;40582;53.100;6.686;2022-11-15T14:12:32;12.35;;;4.63;;
54683;SDS011;40582;53.100;6.686;2022-11-15T14:15:45;14.85;;;4.40;;
54683;SDS011;40582;53.100;6.686;2022-11-15T14:17:51;7.22;;;3.75;;
54683;SDS011;40582;53.100;6.686;2022-11-15T14:20:36;10.30;;;4.15;;
54683;SDS011;40582;53.100;6.686;2022-11-15T14:23:04;7.18;;;3.38;;
54683;SDS011;40582;53.100;6.686;2022-11-15T14:25:51;9.60;;;3.47;;
54683;SDS011;40582;53.100;6.686;2022-11-15T14:30:47;9.38;;;3.45;;
54683;SDS011;40582;53.100;6.686;2022-11-15T14:33:22;7.05;;;3.33;;
54683;SDS011;40582;53.100;6.686;2022-11-15T14:35:50;6.63;;;3.55;;
54683;SDS011;40582;53.100;6.686;2022-11-15T14:38:17;9.63;;;4.03;;
54683;SDS011;40582;53.100;6.686;2022-11-15T14:40:43;16.02;;;9.20;;
54683;SDS011;40582;53.100;6.686;2022-11-15T14:43:10;86.13;;;57.05;;
54683;SDS011;40582;53.100;6.686;2022-11-15T14:45:37;87.97;;;49.97;;
54683;SDS011;40582;53.100;6.686;2022-11-15T14:48:03;71.68;;;46.35;;
54683;SDS011;40582;53.100;6.686;2022-11-15T14:50:29;64.22;;;40.83;;
54683;SDS011;40582;53.100;6.686;2022-11-15T14:52:55;41.83;;;25.17;;
54683;SDS011;40582;53.100;6.686;2022-11-15T14:55:24;23.58;;;16.45;;
54683;SDS011;40582;53.100;6.686;2022-11-15T14:57:56;21.65;;;11.10;;
54683;SDS011;40582;53.100;6.686;2022-11-15T15:00:22;17.25;;;9.82;;
54683;SDS011;40582;53.100;6.686;2022-11-15T15:02:48;22.05;;;13.15;;
54683;SDS011;40582;53.100;6.686;2022-11-15T15:05:18;7.40;;;5.00;;
54683;SDS011;40582;53.100;6.686;2022-11-15T15:07:45;11.55;;;6.05;;
54683;SDS011;40582;53.100;6.686;2022-11-15T15:10:12;14.55;;;6.80;;
54683;SDS011;40582;53.100;6.686;2022-11-15T15:12:39;8.80;;;5.88;;
54683;SDS011;40582;53.100;6.686;2022-11-15T15:15:05;8.45;;;5.40;;
54683;SDS011;40582;53.100;6.686;2022-11-15T15:17:36;9.43;;;5.90;;
54683;SDS011;40582;53.100;6.686;2022-11-15T15:20:02;7.50;;;4.50;;
54683;SDS011;40582;53.100;6.686;2022-11-15T15:22:28;7.10;;;4.32;;
54683;SDS011;40582;53.100;6.686;2022-11-15T15:24:55;7.78;;;4.20;;
54683;SDS011;40582;53.100;6.686;2022-11-15T15:27:21;7.95;;;3.95;;
54683;SDS011;40582;53.100;6.686;2022-11-15T15:29:46;9.65;;;4.22;;
54683;SDS011;40582;53.100;6.686;2022-11-15T15:32:12;6.20;;;4.05;;
54683;SDS011;40582;53.100;6.686;2022-11-15T15:34:38;6.32;;;4.72;;
54683;SDS011;40582;53.100;6.686;2022-11-15T15:37:21;105.20;;;50.38;;
54683;SDS011;40582;53.100;6.686;2022-11-15T15:39:51;55.95;;;29.27;;
54683;SDS011;40582;53.100;6.686;2022-11-15T15:42:18;17.48;;;9.27;;
54683;SDS011;40582;53.100;6.686;2022-11-15T15:44:45;11.18;;;7.22;;
54683;SDS011;40582;53.100;6.686;2022-11-15T15:47:12;15.73;;;9.95;;
54683;SDS011;40582;53.100;6.686;2022-11-15T15:49:40;16.42;;;10.25;;
54683;SDS011;40582;53.100;6.686;2022-11-15T15:52:06;9.80;;;5.90;;
54683;SDS011;40582;53.100;6.686;2022-11-15T15:54:32;18.33;;;12.45;;
54683;SDS011;40582;53.100;6.686;2022-11-15T15:56:58;45.15;;;30.08;;
54683;SDS011;40582;53.100;6.686;2022-11-15T15:59:23;21.67;;;13.95;;
54683;SDS011;40582;53.100;6.686;2022-11-15T16:01:49;11.13;;;7.90;;
54683;SDS011;40582;53.100;6.686;2022-11-15T16:04:15;10.27;;;7.00;;
54683;SDS011;40582;53.100;6.686;2022-11-15T16:06:40;17.25;;;12.00;;
54683;SDS011;40582;53.100;6.686;2022-11-15T16:09:13;10.57;;;6.85;;
54683;SDS011;40582;53.100;6.686;2022-11-15T16:11:40;10.32;;;6.85;;
54683;SDS011;40582;53.100;6.686;2022-11-15T16:14:07;21.65;;;12.48;;
54683;SDS011;40582;53.100;6.686;2022-11-15T16:16:33;11.32;;;7.70;;
54683;SDS011;40582;53.100;6.686;2022-11-15T16:19:00;15.48;;;9.48;;
54683;SDS011;40582;53.100;6.686;2022-11-15T16:21:26;18.92;;;13.18;;
54683;SDS011;40582;53.100;6.686;2022-11-15T16:23:52;11.40;;;7.47;;
54683;SDS011;40582;53.100;6.686;2022-11-15T16:28:50;18.40;;;10.77;;
54683;SDS011;40582;53.100;6.686;2022-11-15T16:31:16;21.75;;;14.20;;
54683;SDS011;40582;53.100;6.686;2022-11-15T16:33:44;12.65;;;8.88;;
54683;SDS011;40582;53.100;6.686;2022-11-15T16:38:47;9.82;;;6.07;;
54683;SDS011;40582;53.100;6.686;2022-11-15T16:41:13;11.77;;;5.15;;
54683;SDS011;40582;53.100;6.686;2022-11-15T16:43:40;8.68;;;6.32;;
54683;SDS011;40582;53.100;6.686;2022-11-15T16:46:12;8.60;;;7.40;;
54683;SDS011;40582;53.100;6.686;2022-11-15T16:48:42;10.63;;;7.70;;